createdAt,value
2023-01-25T00:00:46.168Z,1.18
2023-01-25T00:03:12.877Z,1.13
2023-01-25T00:05:39.664Z,1.09
2023-01-25T00:08:06.436Z,1.10
2023-01-25T00:10:33.131Z,1.05
2023-01-25T00:12:59.940Z,1.10
2023-01-25T00:15:26.651Z,1.13
2023-01-25T00:17:53.301Z,0.98
2023-01-25T00:20:20.210Z,0.97
2023-01-25T00:22:46.873Z,0.98
2023-01-25T00:25:13.556Z,0.97
2023-01-25T00:27:40.436Z,1.00
2023-01-25T00:30:07.833Z,1.03
2023-01-25T00:32:49.690Z,0.96
2023-01-25T00:35:16.531Z,1.01
2023-01-25T00:37:44.763Z,1.07
2023-01-25T00:40:13.161Z,1.13
2023-01-25T00:42:40.491Z,1.16
2023-01-25T00:45:08.637Z,1.12
2023-01-25T00:47:35.472Z,1.14
2023-01-25T00:50:02.227Z,1.16
2023-01-25T00:52:28.971Z,0.97
2023-01-25T00:54:55.714Z,1.00
2023-01-25T00:57:22.488Z,1.08
2023-01-25T00:59:49.159Z,1.10
2023-01-25T01:02:15.935Z,1.06
2023-01-25T01:04:42.643Z,1.04
2023-01-25T01:07:11.181Z,1.05
2023-01-25T01:09:37.881Z,1.11
2023-01-25T01:12:04.990Z,1.07
2023-01-25T01:14:31.899Z,1.05
2023-01-25T01:16:58.713Z,1.06
2023-01-25T01:19:25.531Z,1.07
2023-01-25T01:21:52.312Z,1.09
2023-01-25T01:24:20.134Z,1.00
2023-01-25T01:26:47.020Z,1.04
2023-01-25T01:29:13.829Z,1.06
2023-01-25T01:31:40.710Z,1.13
2023-01-25T01:34:07.471Z,1.16
2023-01-25T01:36:34.260Z,1.18
2023-01-25T01:39:01.045Z,1.19
2023-01-25T01:41:28.028Z,1.12
2023-01-25T01:43:54.871Z,1.03
2023-01-25T01:46:40.052Z,1.06
2023-01-25T01:49:14.542Z,1.11
2023-01-25T01:51:47.484Z,1.10
2023-01-25T01:54:16.237Z,1.11
2023-01-25T01:56:57.553Z,1.11
2023-01-25T01:59:28.200Z,1.06
2023-01-25T02:01:55.896Z,1.02
2023-01-25T02:04:23.560Z,1.04
2023-01-25T02:06:58.735Z,1.08
2023-01-25T02:09:26.419Z,1.03
2023-01-25T02:11:54.058Z,1.10
2023-01-25T02:14:21.030Z,1.12
2023-01-25T02:16:47.811Z,1.16
2023-01-25T02:19:35.761Z,1.10
2023-01-25T02:22:07.828Z,1.09
2023-01-25T02:24:35.409Z,1.08
2023-01-25T02:27:02.273Z,1.01
2023-01-25T02:29:29.719Z,0.98
2023-01-25T02:32:04.153Z,1.04
2023-01-25T02:34:30.848Z,0.99
2023-01-25T02:36:57.811Z,1.00
2023-01-25T02:39:26.731Z,1.02
2023-01-25T02:41:53.877Z,1.10
2023-01-25T02:44:24.496Z,1.11
2023-01-25T02:46:51.492Z,1.10
2023-01-25T02:49:19.371Z,1.11
2023-01-25T02:51:52.071Z,1.04
2023-01-25T02:54:20.479Z,1.02
2023-01-25T02:56:47.322Z,1.03
2023-01-25T02:59:14.413Z,1.01
2023-01-25T03:01:43.220Z,0.97
2023-01-25T03:04:10.328Z,1.00
2023-01-25T03:06:38.573Z,1.06
2023-01-25T03:09:07.110Z,0.99
2023-01-25T03:11:33.991Z,1.02
2023-01-25T03:14:01.080Z,1.09
2023-01-25T03:16:28.167Z,1.11
2023-01-25T03:18:55.500Z,1.04
2023-01-25T03:21:23.404Z,1.06
2023-01-25T03:23:58.486Z,0.93
2023-01-25T03:26:26.533Z,0.91
2023-01-25T03:28:53.249Z,1.01
2023-01-25T03:31:20.188Z,0.97
2023-01-25T03:33:47.210Z,1.01
2023-01-25T03:36:13.960Z,0.92
2023-01-25T03:38:40.747Z,0.97
2023-01-25T03:41:08.080Z,0.94
2023-01-25T03:43:35.101Z,0.94
2023-01-25T03:46:02.269Z,0.90
2023-01-25T03:48:30.331Z,0.90
2023-01-25T03:50:59.058Z,0.99
2023-01-25T03:53:30.222Z,1.04
2023-01-25T03:56:01.795Z,1.01
2023-01-25T03:58:29.576Z,1.10
2023-01-25T04:00:58.197Z,1.02
2023-01-25T04:03:25.664Z,1.02
2023-01-25T04:05:53.729Z,0.88
2023-01-25T04:08:21.110Z,0.91
2023-01-25T04:10:55.532Z,0.87
2023-01-25T04:13:23.200Z,0.95
2023-01-25T04:15:50.412Z,0.91
2023-01-25T04:18:17.418Z,0.86
2023-01-25T04:20:44.463Z,0.87
2023-01-25T04:23:11.891Z,0.92
2023-01-25T04:25:39.091Z,0.90
2023-01-25T04:28:05.873Z,0.88
2023-01-25T04:30:32.615Z,0.90
2023-01-25T04:33:06.888Z,0.87
2023-01-25T04:35:33.627Z,0.90
2023-01-25T04:38:00.600Z,0.92
2023-01-25T04:40:27.665Z,0.92
2023-01-25T04:42:54.491Z,0.92
2023-01-25T04:45:21.563Z,0.91
2023-01-25T04:47:48.690Z,0.90
2023-01-25T04:50:15.596Z,0.90
2023-01-25T04:52:42.261Z,0.99
2023-01-25T04:55:09.423Z,1.02
2023-01-25T04:57:36.276Z,1.03
2023-01-25T05:00:03.724Z,1.01
2023-01-25T05:02:30.484Z,0.99
2023-01-25T05:04:57.280Z,0.97
2023-01-25T05:07:24.011Z,0.87
2023-01-25T05:09:50.724Z,0.82
2023-01-25T05:12:18.196Z,0.91
2023-01-25T05:14:44.993Z,0.93
2023-01-25T05:17:11.690Z,0.93
2023-01-25T05:19:38.451Z,0.91
2023-01-25T05:22:07.724Z,0.90
2023-01-25T05:24:35.507Z,1.02
2023-01-25T05:27:05.810Z,0.91
2023-01-25T05:29:37.893Z,0.87
2023-01-25T05:32:06.890Z,0.89
2023-01-25T05:34:33.781Z,0.88
2023-01-25T05:37:01.125Z,0.84
2023-01-25T05:39:28.225Z,0.98
2023-01-25T05:41:54.836Z,0.91
2023-01-25T05:44:21.608Z,0.83
2023-01-25T05:46:48.492Z,0.81
2023-01-25T05:49:15.267Z,0.78
2023-01-25T05:51:42.048Z,0.79
2023-01-25T05:54:13.076Z,0.99
2023-01-25T05:56:40.158Z,0.92
2023-01-25T05:59:06.814Z,0.76
2023-01-25T06:01:34.219Z,0.74
2023-01-25T06:04:00.925Z,0.74
2023-01-25T06:06:27.725Z,0.78
2023-01-25T06:08:54.456Z,0.69
2023-01-25T06:11:23.127Z,0.76
2023-01-25T06:13:50.847Z,0.73
2023-01-25T06:16:18.696Z,0.71
2023-01-25T06:18:45.569Z,0.75
2023-01-25T06:21:12.357Z,0.79
2023-01-25T06:23:39.303Z,0.81
2023-01-25T06:26:08.195Z,0.81
2023-01-25T06:28:36.776Z,0.82
2023-01-25T06:31:15.435Z,0.80
2023-01-25T06:33:42.927Z,0.77
2023-01-25T06:36:14.979Z,0.82
2023-01-25T06:38:42.048Z,0.80
2023-01-25T06:41:12.116Z,0.81
2023-01-25T06:43:39.447Z,0.79
2023-01-25T06:46:07.999Z,0.83
2023-01-25T06:48:35.380Z,0.92
2023-01-25T06:51:07.032Z,0.93
2023-01-25T06:53:36.440Z,0.93
2023-01-25T06:56:06.014Z,0.94
2023-01-25T06:58:33.049Z,0.90
2023-01-25T07:01:05.389Z,0.82
2023-01-25T07:03:32.826Z,0.86
2023-01-25T07:06:04.481Z,0.76
2023-01-25T07:08:32.435Z,0.82
2023-01-25T07:11:04.385Z,0.72
2023-01-25T07:13:32.500Z,0.87
2023-01-25T07:16:01.551Z,0.85
2023-01-25T07:18:30.313Z,0.80
2023-01-25T07:21:08.789Z,0.86
2023-01-25T07:23:38.031Z,0.89
2023-01-25T07:26:06.205Z,0.81
2023-01-25T07:28:33.739Z,0.82
2023-01-25T07:31:07.466Z,0.91
2023-01-25T07:33:34.875Z,1.03
2023-01-25T07:36:06.633Z,1.06
2023-01-25T07:38:33.778Z,1.01
2023-01-25T07:41:00.598Z,1.06
2023-01-25T07:43:27.763Z,1.03
2023-01-25T07:45:54.704Z,0.98
2023-01-25T07:48:21.625Z,0.89
2023-01-25T07:51:08.425Z,0.87
2023-01-25T07:53:35.130Z,0.91
2023-01-25T07:56:01.760Z,0.84
2023-01-25T07:58:28.674Z,0.80
2023-01-25T08:00:55.376Z,0.87
2023-01-25T08:03:22.366Z,0.81
2023-01-25T08:05:49.341Z,0.89
2023-01-25T08:08:16.072Z,1.03
2023-01-25T08:10:42.890Z,0.96
2023-01-25T08:13:09.711Z,0.92
2023-01-25T08:15:36.712Z,0.89
2023-01-25T08:18:03.521Z,0.93
2023-01-25T08:20:30.280Z,0.94
2023-01-25T08:22:57.010Z,0.79
2023-01-25T08:25:23.801Z,0.83
2023-01-25T08:27:52.273Z,0.84
2023-01-25T08:30:19.231Z,0.88
2023-01-25T08:32:46.033Z,0.98
2023-01-25T08:35:12.800Z,1.07
2023-01-25T08:37:39.481Z,1.11
2023-01-25T08:40:07.932Z,1.13
2023-01-25T08:42:35.051Z,1.12
2023-01-25T08:45:02.867Z,1.08
2023-01-25T08:47:29.714Z,0.96
2023-01-25T08:49:59.423Z,0.93
2023-01-25T08:52:26.363Z,1.06
2023-01-25T08:54:53.029Z,0.99
2023-01-25T08:57:19.761Z,0.94
2023-01-25T08:59:46.630Z,0.97
2023-01-25T09:02:13.393Z,0.97
2023-01-25T09:04:40.159Z,0.99
2023-01-25T09:07:07.832Z,1.16
2023-01-25T09:09:34.553Z,1.17
2023-01-25T09:12:01.323Z,1.27
2023-01-25T09:14:28.022Z,1.11
2023-01-25T09:16:54.791Z,1.04
2023-01-25T09:19:21.563Z,1.03
2023-01-25T09:21:48.533Z,1.13
2023-01-25T09:24:15.264Z,1.11
2023-01-25T09:26:47.812Z,1.16
2023-01-25T09:29:16.881Z,1.24
2023-01-25T09:31:44.272Z,1.21
2023-01-25T09:34:12.573Z,1.12
2023-01-25T09:36:39.840Z,1.23
2023-01-25T09:39:07.054Z,1.25
2023-01-25T09:42:20.385Z,1.27
2023-01-25T09:44:55.937Z,1.45
2023-01-25T09:47:55.955Z,1.52
2023-01-25T09:50:33.401Z,1.52
2023-01-25T09:53:06.054Z,1.47
2023-01-25T09:55:33.591Z,1.43
2023-01-25T09:58:02.439Z,1.36
2023-01-25T10:00:33.112Z,1.56
2023-01-25T10:03:12.586Z,1.37
2023-01-25T10:05:50.995Z,1.62
2023-01-25T10:08:32.721Z,1.71
2023-01-25T10:11:11.981Z,1.76
2023-01-25T10:13:38.711Z,1.66
2023-01-25T10:16:12.134Z,1.65
2023-01-25T10:19:12.210Z,1.77
2023-01-25T10:21:43.098Z,1.66
2023-01-25T10:24:31.193Z,1.46
2023-01-25T10:27:02.682Z,1.84
2023-01-25T10:29:32.439Z,1.73
2023-01-25T10:32:19.733Z,1.51
2023-01-25T10:34:56.945Z,1.55
2023-01-25T10:37:29.527Z,1.72
2023-01-25T10:40:07.061Z,1.72
2023-01-25T10:42:38.543Z,1.67
2023-01-25T10:45:15.603Z,1.66
2023-01-25T10:47:44.539Z,1.56
2023-01-25T10:50:43.038Z,1.52
2023-01-25T10:53:22.104Z,1.57
2023-01-25T10:56:25.509Z,1.58
2023-01-25T10:58:56.919Z,1.71
2023-01-25T11:01:29.840Z,1.69
2023-01-25T11:03:57.711Z,1.49
2023-01-25T11:06:30.479Z,1.61
2023-01-25T11:08:57.235Z,1.73
2023-01-25T11:11:32.972Z,1.69
2023-01-25T11:13:59.817Z,1.56
2023-01-25T11:16:32.159Z,1.52
2023-01-25T11:19:00.612Z,1.50
2023-01-25T11:21:30.352Z,1.60
2023-01-25T11:24:09.357Z,1.26
2023-01-25T11:26:40.866Z,1.43
2023-01-25T11:29:17.660Z,1.66
2023-01-25T11:31:47.972Z,1.59
2023-01-25T11:34:17.493Z,1.61
2023-01-25T11:37:06.742Z,1.62
2023-01-25T11:39:48.484Z,1.43
2023-01-25T11:42:25.813Z,1.79
2023-01-25T11:45:15.521Z,1.91
2023-01-25T11:47:49.971Z,1.66
2023-01-25T11:50:34.708Z,1.79
2023-01-25T11:53:25.911Z,1.85
2023-01-25T11:56:04.600Z,1.73
2023-01-25T11:58:54.494Z,1.48
2023-01-25T12:01:27.272Z,1.66
2023-01-25T12:04:17.785Z,1.62
2023-01-25T12:06:59.052Z,1.55
2023-01-25T12:09:31.612Z,1.49
2023-01-25T12:12:01.358Z,1.51
2023-01-25T12:15:13.338Z,1.85
2023-01-25T12:18:19.256Z,1.59
2023-01-25T12:21:05.340Z,1.48
2023-01-25T12:23:33.923Z,1.52
2023-01-25T12:26:06.676Z,1.60
2023-01-25T12:28:39.542Z,1.73
2023-01-25T12:31:34.685Z,1.66
2023-01-25T12:34:11.872Z,1.64
2023-01-25T12:36:45.191Z,1.84
2023-01-25T12:39:20.697Z,1.71
2023-01-25T12:42:09.217Z,1.54
2023-01-25T12:44:49.992Z,1.52
2023-01-25T12:47:34.900Z,1.76
2023-01-25T12:50:15.981Z,1.51
2023-01-25T12:52:48.198Z,1.45
2023-01-25T12:55:17.703Z,1.57
2023-01-25T12:57:52.381Z,1.67
2023-01-25T13:00:46.116Z,1.56
2023-01-25T13:03:29.998Z,1.57
2023-01-25T13:06:04.166Z,1.45
2023-01-25T13:08:41.566Z,1.37
2023-01-25T13:11:22.376Z,1.56
2023-01-25T13:13:49.554Z,1.46
2023-01-25T13:16:30.033Z,1.51
2023-01-25T13:18:58.002Z,1.39
2023-01-25T13:21:37.095Z,1.43
2023-01-25T13:24:22.123Z,1.46
2023-01-25T13:26:50.076Z,1.55
2023-01-25T13:29:38.753Z,1.38
2023-01-25T13:32:13.652Z,1.26
2023-01-25T13:34:44.307Z,1.33
2023-01-25T13:37:17.835Z,1.43
2023-01-25T13:39:46.569Z,1.42
2023-01-25T13:42:13.339Z,1.70
2023-01-25T13:44:45.939Z,1.38
2023-01-25T13:47:30.631Z,1.38
2023-01-25T13:50:14.771Z,1.54
2023-01-25T13:52:59.712Z,1.61
2023-01-25T13:55:27.254Z,1.40
2023-01-25T13:57:54.771Z,1.38
2023-01-25T14:00:22.013Z,1.44
2023-01-25T14:02:54.723Z,1.46
2023-01-25T14:05:24.949Z,1.56
2023-01-25T14:07:54.185Z,1.57
2023-01-25T14:10:24.383Z,1.36
2023-01-25T14:12:52.576Z,1.34
2023-01-25T14:15:26.724Z,1.59
2023-01-25T14:18:16.370Z,1.35
2023-01-25T14:20:44.612Z,1.46
2023-01-25T14:23:24.718Z,1.63
2023-01-25T14:25:52.534Z,1.08
2023-01-25T14:28:19.368Z,1.08
2023-01-25T14:30:51.149Z,1.09
2023-01-25T14:33:27.655Z,1.34
2023-01-25T14:36:00.103Z,1.27
2023-01-25T14:38:40.897Z,1.17
2023-01-25T14:41:17.656Z,1.16
2023-01-25T14:44:10.876Z,1.24
2023-01-25T14:46:38.719Z,1.25
2023-01-25T14:49:28.239Z,1.13
2023-01-25T14:52:07.884Z,1.19
2023-01-25T14:54:57.532Z,1.32
2023-01-25T14:57:38.588Z,1.15
2023-01-25T15:00:21.333Z,1.15
2023-01-25T15:02:53.890Z,1.11
2023-01-25T15:05:21.623Z,1.00
2023-01-25T15:08:07.501Z,1.04
2023-01-25T15:10:35.706Z,1.14
2023-01-25T15:13:15.589Z,1.04
2023-01-25T15:15:54.779Z,0.93
2023-01-25T15:18:48.741Z,0.90
2023-01-25T15:21:19.609Z,0.97
2023-01-25T15:23:48.216Z,0.93
2023-01-25T15:26:20.730Z,0.91
2023-01-25T15:28:48.703Z,0.86
2023-01-25T15:31:29.962Z,0.80
2023-01-25T15:33:57.523Z,0.78
2023-01-25T15:36:24.625Z,0.85
2023-01-25T15:38:51.457Z,0.94
2023-01-25T15:41:21.011Z,0.99
2023-01-25T15:43:48.400Z,0.94
2023-01-25T15:46:22.366Z,0.91
2023-01-25T15:48:51.092Z,0.81
2023-01-25T15:51:18.445Z,0.82
2023-01-25T15:53:45.223Z,0.82
2023-01-25T15:56:18.638Z,0.83
2023-01-25T15:58:48.242Z,0.71
2023-01-25T16:01:15.527Z,0.74
2023-01-25T16:03:42.265Z,0.79
2023-01-25T16:06:31.728Z,0.85
2023-01-25T16:09:00.093Z,0.84
2023-01-25T16:11:27.230Z,0.91
2023-01-25T16:13:54.199Z,0.91
2023-01-25T16:16:23.386Z,0.88
2023-01-25T16:18:50.508Z,0.85
2023-01-25T16:21:17.200Z,0.80
2023-01-25T16:23:43.940Z,0.75
2023-01-25T16:26:24.979Z,0.73
2023-01-25T16:28:51.984Z,0.92
2023-01-25T16:31:31.301Z,0.87
2023-01-25T16:33:59.094Z,0.82
2023-01-25T16:36:25.810Z,0.79
2023-01-25T16:38:52.683Z,0.82
2023-01-25T16:41:19.543Z,0.76
2023-01-25T16:43:48.311Z,0.73
2023-01-25T16:46:23.552Z,0.78
2023-01-25T16:48:55.001Z,0.74
2023-01-25T16:51:26.786Z,0.72
2023-01-25T16:53:56.100Z,0.66
2023-01-25T16:56:27.732Z,0.69
2023-01-25T16:58:56.384Z,0.66
2023-01-25T17:01:25.043Z,0.60
2023-01-25T17:03:52.153Z,0.63
2023-01-25T17:06:27.480Z,0.61
2023-01-25T17:09:02.201Z,0.75
2023-01-25T17:11:31.994Z,0.56
2023-01-25T17:13:59.852Z,0.62
2023-01-25T17:16:28.049Z,0.45
2023-01-25T17:18:56.439Z,0.62
2023-01-25T17:21:23.634Z,0.53
2023-01-25T17:23:50.856Z,0.58
2023-01-25T17:26:19.388Z,0.58
2023-01-25T17:28:46.534Z,0.52
2023-01-25T17:31:19.451Z,0.51
2023-01-25T17:33:46.639Z,0.48
2023-01-25T17:36:15.123Z,0.51
2023-01-25T17:38:42.284Z,0.43
2023-01-25T17:41:11.542Z,0.45
2023-01-25T17:43:38.337Z,0.36
2023-01-25T17:46:16.281Z,0.42
2023-01-25T17:48:43.080Z,0.46
2023-01-25T17:51:09.866Z,0.45
2023-01-25T17:53:36.650Z,0.45
2023-01-25T17:56:05.545Z,0.34
2023-01-25T17:58:35.093Z,0.38
2023-01-25T18:01:13.236Z,0.33
2023-01-25T18:03:41.577Z,0.36
2023-01-25T18:06:09.618Z,0.34
2023-01-25T18:08:41.022Z,0.36
2023-01-25T18:11:09.073Z,0.47
2023-01-25T18:13:42.788Z,0.50
2023-01-25T18:16:10.292Z,0.51
2023-01-25T18:18:38.339Z,0.46
2023-01-25T18:21:10.747Z,0.48
2023-01-25T18:23:38.538Z,0.47
2023-01-25T18:26:06.628Z,0.47
2023-01-25T18:28:34.145Z,0.41
2023-01-25T18:31:03.769Z,0.28
2023-01-25T18:33:30.829Z,0.27
2023-01-25T18:36:01.272Z,0.32
2023-01-25T18:38:29.895Z,0.47
2023-01-25T18:40:56.935Z,0.50
2023-01-25T18:43:23.790Z,0.49
2023-01-25T18:45:58.785Z,0.56
2023-01-25T18:48:32.582Z,0.51
2023-01-25T18:51:09.293Z,0.50
2023-01-25T18:53:37.928Z,0.51
2023-01-25T18:56:11.637Z,0.47
2023-01-25T18:58:38.596Z,0.47
2023-01-25T19:01:09.195Z,0.41
2023-01-25T19:03:36.322Z,0.22
2023-01-25T19:06:03.696Z,0.13
2023-01-25T19:08:33.272Z,0.31
2023-01-25T19:11:01.631Z,0.32
2023-01-25T19:13:31.951Z,0.29
2023-01-25T19:16:07.589Z,0.28
2023-01-25T19:18:36.547Z,0.24
2023-01-25T19:21:07.043Z,0.12
2023-01-25T19:23:35.943Z,0.16
2023-01-25T19:26:03.369Z,0.23
2023-01-25T19:28:30.361Z,0.23
2023-01-25T19:30:57.557Z,0.10
2023-01-25T19:33:24.371Z,0.19
2023-01-25T19:35:59.426Z,0.17
2023-01-25T19:38:26.240Z,0.22
2023-01-25T19:40:53.052Z,0.22
2023-01-25T19:43:19.823Z,0.14
2023-01-25T19:45:46.528Z,0.17
2023-01-25T19:48:13.292Z,0.11
2023-01-25T19:50:40.004Z,0.09
2023-01-25T19:53:07.211Z,0.06
2023-01-25T19:55:33.962Z,0.11
2023-01-25T19:58:00.682Z,0.10
2023-01-25T20:00:27.684Z,0.04
2023-01-25T20:02:57.394Z,-0.03
2023-01-25T20:05:28.263Z,-0.08
2023-01-25T20:07:54.991Z,-0.03
2023-01-25T20:10:21.622Z,0.00
2023-01-25T20:12:48.399Z,0.07
2023-01-25T20:15:15.582Z,0.11
2023-01-25T20:17:43.589Z,0.13
2023-01-25T20:20:11.068Z,0.12
2023-01-25T20:22:37.993Z,0.15
2023-01-25T20:25:05.044Z,0.18
2023-01-25T20:27:31.702Z,0.14
2023-01-25T20:29:58.452Z,0.13
2023-01-25T20:32:32.656Z,0.15
2023-01-25T20:35:03.575Z,0.13
2023-01-25T20:37:30.355Z,0.14
2023-01-25T20:39:57.318Z,0.11
2023-01-25T20:42:24.133Z,0.14
2023-01-25T20:44:50.857Z,0.12
2023-01-25T20:47:17.652Z,0.07
2023-01-25T20:49:44.600Z,-0.03
2023-01-25T20:52:13.972Z,0.06
2023-01-25T20:54:41.757Z,0.06
2023-01-25T20:57:08.656Z,0.06
2023-01-25T20:59:35.469Z,0.11
2023-01-25T21:02:02.328Z,0.11
2023-01-25T21:04:28.964Z,-0.04
2023-01-25T21:06:55.685Z,0.03
2023-01-25T21:09:23.330Z,0.10
2023-01-25T21:11:50.109Z,0.05
2023-01-25T21:14:16.789Z,0.08
2023-01-25T21:16:43.426Z,0.03
2023-01-25T21:19:10.631Z,-0.01
2023-01-25T21:21:38.702Z,-0.01
2023-01-25T21:24:06.027Z,-0.06
2023-01-25T21:26:34.153Z,-0.05
2023-01-25T21:29:01.701Z,-0.02
2023-01-25T21:31:32.883Z,-0.03
2023-01-25T21:33:59.985Z,-0.03
2023-01-25T21:36:27.213Z,-0.02
2023-01-25T21:38:55.193Z,-0.10
2023-01-25T21:41:26.765Z,-0.08
2023-01-25T21:44:12.983Z,-0.04
2023-01-25T21:46:40.141Z,-0.11
2023-01-25T21:49:40.770Z,-0.06
2023-01-25T21:52:07.559Z,-0.08
2023-01-25T21:54:36.170Z,-0.05
2023-01-25T21:57:06.177Z,-0.04
2023-01-25T21:59:32.862Z,-0.02
2023-01-25T22:01:59.473Z,-0.06
2023-01-25T22:04:27.240Z,-0.08
2023-01-25T22:06:54.576Z,-0.10
2023-01-25T22:09:22.169Z,-0.10
2023-01-25T22:11:49.681Z,-0.08
2023-01-25T22:14:16.738Z,-0.10
2023-01-25T22:16:43.392Z,-0.11
2023-01-25T22:19:10.273Z,-0.06
2023-01-25T22:21:36.928Z,-0.08
2023-01-25T22:24:05.125Z,-0.10
2023-01-25T22:27:02.783Z,-0.11
2023-01-25T22:29:29.991Z,-0.09
2023-01-25T22:31:57.202Z,-0.20
2023-01-25T22:34:23.936Z,-0.32
2023-01-25T22:36:50.534Z,-0.29
2023-01-25T22:39:17.183Z,-0.52
2023-01-25T22:41:43.862Z,-0.55
2023-01-25T22:44:11.148Z,-0.56
2023-01-25T22:46:37.879Z,-0.46
2023-01-25T22:49:05.057Z,-0.39
2023-01-25T22:51:32.243Z,-0.36
2023-01-25T22:53:59.510Z,-0.48
2023-01-25T22:56:32.049Z,-0.45
2023-01-25T22:59:00.400Z,-0.35
2023-01-25T23:01:29.684Z,-0.39
2023-01-25T23:03:57.162Z,-0.42
2023-01-25T23:06:26.440Z,-0.31
2023-01-25T23:08:57.371Z,-0.29
2023-01-25T23:11:24.891Z,-0.39
2023-01-25T23:14:12.070Z,-0.41
2023-01-25T23:16:38.688Z,-0.40
2023-01-25T23:19:05.991Z,-0.36
2023-01-25T23:21:35.787Z,-0.43
2023-01-25T23:24:03.820Z,-0.38
2023-01-25T23:26:37.777Z,-0.40
2023-01-25T23:29:07.318Z,-0.31
2023-01-25T23:31:34.099Z,-0.41
2023-01-25T23:34:02.370Z,-0.38
2023-01-25T23:36:31.511Z,-0.40
2023-01-25T23:38:58.587Z,-0.34
2023-01-25T23:41:27.286Z,-0.33
2023-01-25T23:43:55.122Z,-0.43
2023-01-25T23:46:22.920Z,-0.40
2023-01-25T23:48:49.578Z,-0.37
2023-01-25T23:51:17.535Z,-0.34
2023-01-25T23:53:44.290Z,-0.36
2023-01-25T23:56:17.123Z,-0.33
2023-01-25T23:58:44.467Z,-0.43
